sensor_id;sensor_type;location;lat;lon;timestamp;P1;durP1;ratioP1;P2;durP2;ratioP2
61702;SDS011;47622;47.726;3.298;2023-04-27T00:02:00;10.10;;;5.88;;
61702;SDS011;47622;47.726;3.298;2023-04-27T00:04:26;8.27;;;5.60;;
61702;SDS011;47622;47.726;3.298;2023-04-27T00:06:52;10.18;;;6.28;;
61702;SDS011;47622;47.726;3.298;2023-04-27T00:09:17;8.63;;;5.68;;
61702;SDS011;47622;47.726;3.298;2023-04-27T00:11:43;9.60;;;6.40;;
61702;SDS011;47622;47.726;3.298;2023-04-27T00:14:08;12.02;;;5.95;;
61702;SDS011;47622;47.726;3.298;2023-04-27T00:16:34;11.05;;;5.82;;
61702;SDS011;47622;47.726;3.298;2023-04-27T00:19:00;10.32;;;6.43;;
61702;SDS011;47622;47.726;3.298;2023-04-27T00:21:25;10.38;;;6.43;;
61702;SDS011;47622;47.726;3.298;2023-04-27T00:23:51;7.82;;;5.78;;
61702;SDS011;47622;47.726;3.298;2023-04-27T00:26:18;13.98;;;6.63;;
61702;SDS011;47622;47.726;3.298;2023-04-27T00:28:45;12.68;;;7.20;;
61702;SDS011;47622;47.726;3.298;2023-04-27T00:31:11;13.25;;;7.25;;
61702;SDS011;47622;47.726;3.298;2023-04-27T00:33:36;15.18;;;7.45;;
61702;SDS011;47622;47.726;3.298;2023-04-27T00:36:02;12.68;;;7.00;;
61702;SDS011;47622;47.726;3.298;2023-04-27T00:38:28;12.50;;;7.03;;
61702;SDS011;47622;47.726;3.298;2023-04-27T00:41:04;15.85;;;6.95;;
61702;SDS011;47622;47.726;3.298;2023-04-27T00:43:30;11.95;;;6.75;;
61702;SDS011;47622;47.726;3.298;2023-04-27T00:45:56;11.10;;;6.82;;
61702;SDS011;47622;47.726;3.298;2023-04-27T00:48:23;17.70;;;8.35;;
61702;SDS011;47622;47.726;3.298;2023-04-27T00:50:50;8.30;;;5.50;;
61702;SDS011;47622;47.726;3.298;2023-04-27T00:53:16;8.88;;;5.40;;
61702;SDS011;47622;47.726;3.298;2023-04-27T00:55:42;9.20;;;5.60;;
61702;SDS011;47622;47.726;3.298;2023-04-27T00:58:08;12.73;;;6.10;;
61702;SDS011;47622;47.726;3.298;2023-04-27T01:00:37;9.98;;;6.05;;
61702;SDS011;47622;47.726;3.298;2023-04-27T01:03:04;9.38;;;5.85;;
61702;SDS011;47622;47.726;3.298;2023-04-27T01:05:31;10.20;;;5.35;;
61702;SDS011;47622;47.726;3.298;2023-04-27T01:07:56;9.07;;;6.38;;
61702;SDS011;47622;47.726;3.298;2023-04-27T01:10:22;7.88;;;5.28;;
61702;SDS011;47622;47.726;3.298;2023-04-27T01:12:48;10.18;;;5.63;;
61702;SDS011;47622;47.726;3.298;2023-04-27T01:15:13;8.88;;;6.13;;
61702;SDS011;47622;47.726;3.298;2023-04-27T01:17:39;8.07;;;5.63;;
61702;SDS011;47622;47.726;3.298;2023-04-27T01:20:05;8.60;;;5.63;;
61702;SDS011;47622;47.726;3.298;2023-04-27T01:22:34;11.30;;;6.13;;
61702;SDS011;47622;47.726;3.298;2023-04-27T01:25:01;13.00;;;5.80;;
61702;SDS011;47622;47.726;3.298;2023-04-27T01:27:26;10.82;;;5.28;;
61702;SDS011;47622;47.726;3.298;2023-04-27T01:29:52;9.43;;;6.00;;
61702;SDS011;47622;47.726;3.298;2023-04-27T01:32:18;13.85;;;7.47;;
61702;SDS011;47622;47.726;3.298;2023-04-27T01:34:43;15.23;;;7.80;;
61702;SDS011;47622;47.726;3.298;2023-04-27T01:37:09;17.65;;;8.32;;
61702;SDS011;47622;47.726;3.298;2023-04-27T01:39:35;21.58;;;9.38;;
61702;SDS011;47622;47.726;3.298;2023-04-27T01:42:01;12.45;;;6.88;;
61702;SDS011;47622;47.726;3.298;2023-04-27T01:44:27;18.25;;;9.75;;
61702;SDS011;47622;47.726;3.298;2023-04-27T01:46:54;21.67;;;10.52;;
61702;SDS011;47622;47.726;3.298;2023-04-27T01:49:20;21.98;;;9.38;;
61702;SDS011;47622;47.726;3.298;2023-04-27T01:51:46;18.10;;;8.65;;
61702;SDS011;47622;47.726;3.298;2023-04-27T01:54:12;11.05;;;6.95;;
61702;SDS011;47622;47.726;3.298;2023-04-27T01:56:38;10.88;;;6.53;;
61702;SDS011;47622;47.726;3.298;2023-04-27T01:59:06;11.45;;;6.40;;
61702;SDS011;47622;47.726;3.298;2023-04-27T02:01:31;12.30;;;6.95;;
61702;SDS011;47622;47.726;3.298;2023-04-27T02:03:57;11.73;;;7.35;;
61702;SDS011;47622;47.726;3.298;2023-04-27T02:06:22;15.52;;;8.52;;
61702;SDS011;47622;47.726;3.298;2023-04-27T02:08:49;11.85;;;7.50;;
61702;SDS011;47622;47.726;3.298;2023-04-27T02:11:15;12.38;;;7.57;;
61702;SDS011;47622;47.726;3.298;2023-04-27T02:13:41;12.32;;;7.82;;
61702;SDS011;47622;47.726;3.298;2023-04-27T02:16:07;12.57;;;7.97;;
61702;SDS011;47622;47.726;3.298;2023-04-27T02:18:32;14.07;;;7.85;;
61702;SDS011;47622;47.726;3.298;2023-04-27T02:20:59;12.52;;;7.82;;
61702;SDS011;47622;47.726;3.298;2023-04-27T02:23:25;11.25;;;7.45;;
61702;SDS011;47622;47.726;3.298;2023-04-27T02:25:50;13.52;;;7.90;;
61702;SDS011;47622;47.726;3.298;2023-04-27T02:28:17;11.93;;;6.97;;
61702;SDS011;47622;47.726;3.298;2023-04-27T02:30:43;12.57;;;7.57;;
61702;SDS011;47622;47.726;3.298;2023-04-27T02:33:09;15.35;;;7.68;;
61702;SDS011;47622;47.726;3.298;2023-04-27T02:35:35;14.40;;;7.90;;
61702;SDS011;47622;47.726;3.298;2023-04-27T02:38:00;12.32;;;7.13;;
61702;SDS011;47622;47.726;3.298;2023-04-27T02:40:26;14.63;;;6.88;;
61702;SDS011;47622;47.726;3.298;2023-04-27T02:42:52;13.63;;;6.95;;
61702;SDS011;47622;47.726;3.298;2023-04-27T02:45:18;13.73;;;7.15;;
61702;SDS011;47622;47.726;3.298;2023-04-27T02:47:43;13.20;;;6.82;;
61702;SDS011;47622;47.726;3.298;2023-04-27T02:50:09;12.70;;;7.25;;
61702;SDS011;47622;47.726;3.298;2023-04-27T02:52:35;12.55;;;7.38;;
61702;SDS011;47622;47.726;3.298;2023-04-27T02:55:01;14.70;;;8.30;;
61702;SDS011;47622;47.726;3.298;2023-04-27T02:57:26;12.80;;;7.80;;
61702;SDS011;47622;47.726;3.298;2023-04-27T02:59:52;13.50;;;7.57;;
61702;SDS011;47622;47.726;3.298;2023-04-27T03:02:18;13.18;;;8.07;;
61702;SDS011;47622;47.726;3.298;2023-04-27T03:04:43;12.48;;;7.88;;
61702;SDS011;47622;47.726;3.298;2023-04-27T03:07:09;12.00;;;7.72;;
61702;SDS011;47622;47.726;3.298;2023-04-27T03:09:36;11.07;;;6.88;;
61702;SDS011;47622;47.726;3.298;2023-04-27T03:12:02;12.20;;;7.63;;
61702;SDS011;47622;47.726;3.298;2023-04-27T03:14:28;11.90;;;7.28;;
61702;SDS011;47622;47.726;3.298;2023-04-27T03:16:54;11.45;;;7.60;;
61702;SDS011;47622;47.726;3.298;2023-04-27T03:19:21;14.02;;;7.85;;
61702;SDS011;47622;47.726;3.298;2023-04-27T03:21:47;14.10;;;8.35;;
61702;SDS011;47622;47.726;3.298;2023-04-27T03:24:14;9.98;;;6.93;;
61702;SDS011;47622;47.726;3.298;2023-04-27T03:26:39;11.15;;;7.00;;
61702;SDS011;47622;47.726;3.298;2023-04-27T03:29:06;9.48;;;5.88;;
61702;SDS011;47622;47.726;3.298;2023-04-27T03:31:32;9.73;;;6.85;;
61702;SDS011;47622;47.726;3.298;2023-04-27T03:33:57;10.00;;;6.60;;
61702;SDS011;47622;47.726;3.298;2023-04-27T03:36:23;9.27;;;6.75;;
61702;SDS011;47622;47.726;3.298;2023-04-27T03:38:48;9.90;;;6.90;;
61702;SDS011;47622;47.726;3.298;2023-04-27T03:41:14;12.20;;;7.25;;
61702;SDS011;47622;47.726;3.298;2023-04-27T03:43:40;14.68;;;6.95;;
61702;SDS011;47622;47.726;3.298;2023-04-27T03:46:05;13.38;;;7.07;;
61702;SDS011;47622;47.726;3.298;2023-04-27T03:48:33;12.35;;;7.53;;
61702;SDS011;47622;47.726;3.298;2023-04-27T03:51:01;9.95;;;7.20;;
61702;SDS011;47622;47.726;3.298;2023-04-27T03:53:27;12.05;;;7.45;;
61702;SDS011;47622;47.726;3.298;2023-04-27T03:55:53;10.30;;;7.32;;
61702;SDS011;47622;47.726;3.298;2023-04-27T03:58:18;10.75;;;7.38;;
61702;SDS011;47622;47.726;3.298;2023-04-27T04:00:44;10.35;;;6.70;;
61702;SDS011;47622;47.726;3.298;2023-04-27T04:03:10;13.95;;;7.47;;
61702;SDS011;47622;47.726;3.298;2023-04-27T04:05:37;12.70;;;6.88;;
61702;SDS011;47622;47.726;3.298;2023-04-27T04:08:02;13.60;;;7.65;;
61702;SDS011;47622;47.726;3.298;2023-04-27T04:10:28;10.82;;;6.22;;
61702;SDS011;47622;47.726;3.298;2023-04-27T04:12:53;13.00;;;7.30;;
61702;SDS011;47622;47.726;3.298;2023-04-27T04:15:19;8.85;;;6.10;;
61702;SDS011;47622;47.726;3.298;2023-04-27T04:17:45;11.52;;;7.22;;
61702;SDS011;47622;47.726;3.298;2023-04-27T04:20:11;13.30;;;7.70;;
61702;SDS011;47622;47.726;3.298;2023-04-27T04:22:37;11.80;;;6.65;;
61702;SDS011;47622;47.726;3.298;2023-04-27T04:25:03;11.70;;;6.97;;
61702;SDS011;47622;47.726;3.298;2023-04-27T04:27:29;12.07;;;7.18;;
61702;SDS011;47622;47.726;3.298;2023-04-27T04:29:58;13.18;;;6.90;;
61702;SDS011;47622;47.726;3.298;2023-04-27T04:32:25;13.00;;;7.45;;
61702;SDS011;47622;47.726;3.298;2023-04-27T04:34:52;10.15;;;7.03;;
61702;SDS011;47622;47.726;3.298;2023-04-27T04:37:18;11.63;;;7.25;;
61702;SDS011;47622;47.726;3.298;2023-04-27T04:39:44;11.18;;;7.07;;
61702;SDS011;47622;47.726;3.298;2023-04-27T04:42:09;12.20;;;6.97;;
61702;SDS011;47622;47.726;3.298;2023-04-27T04:44:35;11.52;;;6.68;;
61702;SDS011;47622;47.726;3.298;2023-04-27T04:47:00;12.52;;;6.70;;
61702;SDS011;47622;47.726;3.298;2023-04-27T04:49:26;9.15;;;6.20;;
61702;SDS011;47622;47.726;3.298;2023-04-27T04:51:52;11.43;;;7.18;;
61702;SDS011;47622;47.726;3.298;2023-04-27T04:54:19;9.60;;;6.50;;
61702;SDS011;47622;47.726;3.298;2023-04-27T04:56:44;15.20;;;7.45;;
61702;SDS011;47622;47.726;3.298;2023-04-27T04:59:10;10.70;;;7.18;;
61702;SDS011;47622;47.726;3.298;2023-04-27T05:01:36;10.93;;;6.88;;
61702;SDS011;47622;47.726;3.298;2023-04-27T05:04:02;10.50;;;7.10;;
61702;SDS011;47622;47.726;3.298;2023-04-27T05:06:28;10.32;;;7.28;;
61702;SDS011;47622;47.726;3.298;2023-04-27T05:08:56;11.02;;;7.30;;
61702;SDS011;47622;47.726;3.298;2023-04-27T05:11:22;12.73;;;7.18;;
61702;SDS011;47622;47.726;3.298;2023-04-27T05:13:47;10.40;;;6.78;;
61702;SDS011;47622;47.726;3.298;2023-04-27T05:16:13;12.95;;;6.82;;
61702;SDS011;47622;47.726;3.298;2023-04-27T05:18:38;10.75;;;6.63;;
61702;SDS011;47622;47.726;3.298;2023-04-27T05:21:04;11.70;;;6.80;;
61702;SDS011;47622;47.726;3.298;2023-04-27T05:23:30;10.88;;;6.82;;
61702;SDS011;47622;47.726;3.298;2023-04-27T05:25:55;12.70;;;7.32;;
61702;SDS011;47622;47.726;3.298;2023-04-27T05:28:21;10.65;;;6.55;;
61702;SDS011;47622;47.726;3.298;2023-04-27T05:30:47;12.15;;;6.97;;
61702;SDS011;47622;47.726;3.298;2023-04-27T05:33:12;11.40;;;7.68;;
61702;SDS011;47622;47.726;3.298;2023-04-27T05:35:38;11.07;;;6.93;;
61702;SDS011;47622;47.726;3.298;2023-04-27T05:38:03;12.38;;;7.10;;
61702;SDS011;47622;47.726;3.298;2023-04-27T05:40:29;9.65;;;6.47;;
61702;SDS011;47622;47.726;3.298;2023-04-27T05:42:54;9.10;;;5.60;;
61702;SDS011;47622;47.726;3.298;2023-04-27T05:45:20;9.63;;;6.32;;
61702;SDS011;47622;47.726;3.298;2023-04-27T05:47:46;10.48;;;6.10;;
61702;SDS011;47622;47.726;3.298;2023-04-27T05:50:12;11.18;;;6.05;;
61702;SDS011;47622;47.726;3.298;2023-04-27T05:52:38;16.42;;;7.20;;
61702;SDS011;47622;47.726;3.298;2023-04-27T05:55:04;12.40;;;6.85;;
61702;SDS011;47622;47.726;3.298;2023-04-27T05:57:30;11.00;;;6.43;;
61702;SDS011;47622;47.726;3.298;2023-04-27T05:59:56;10.20;;;6.38;;
61702;SDS011;47622;47.726;3.298;2023-04-27T06:02:21;13.57;;;6.43;;
61702;SDS011;47622;47.726;3.298;2023-04-27T06:04:47;10.25;;;6.28;;
61702;SDS011;47622;47.726;3.298;2023-04-27T06:07:13;9.45;;;6.13;;
61702;SDS011;47622;47.726;3.298;2023-04-27T06:09:40;12.27;;;7.22;;
61702;SDS011;47622;47.726;3.298;2023-04-27T06:12:06;11.38;;;6.85;;
61702;SDS011;47622;47.726;3.298;2023-04-27T06:14:34;9.55;;;6.70;;
61702;SDS011;47622;47.726;3.298;2023-04-27T06:17:01;10.38;;;6.97;;
61702;SDS011;47622;47.726;3.298;2023-04-27T06:19:27;9.52;;;7.55;;
61702;SDS011;47622;47.726;3.298;2023-04-27T06:21:53;12.10;;;7.13;;
61702;SDS011;47622;47.726;3.298;2023-04-27T06:24:20;9.90;;;5.75;;
61702;SDS011;47622;47.726;3.298;2023-04-27T06:26:46;9.68;;;6.28;;
61702;SDS011;47622;47.726;3.298;2023-04-27T06:29:13;9.00;;;5.57;;
61702;SDS011;47622;47.726;3.298;2023-04-27T06:31:38;9.13;;;6.03;;
61702;SDS011;47622;47.726;3.298;2023-04-27T06:34:04;10.57;;;6.43;;
61702;SDS011;47622;47.726;3.298;2023-04-27T06:36:30;7.70;;;5.28;;
61702;SDS011;47622;47.726;3.298;2023-04-27T06:38:56;9.00;;;5.65;;
61702;SDS011;47622;47.726;3.298;2023-04-27T06:41:22;10.57;;;6.00;;
61702;SDS011;47622;47.726;3.298;2023-04-27T06:43:49;12.88;;;6.85;;
61702;SDS011;47622;47.726;3.298;2023-04-27T06:46:15;9.07;;;5.90;;
61702;SDS011;47622;47.726;3.298;2023-04-27T06:48:41;10.88;;;6.07;;
61702;SDS011;47622;47.726;3.298;2023-04-27T06:51:06;11.15;;;6.38;;
61702;SDS011;47622;47.726;3.298;2023-04-27T06:53:32;8.23;;;5.88;;
61702;SDS011;47622;47.726;3.298;2023-04-27T06:55:58;8.40;;;5.90;;
61702;SDS011;47622;47.726;3.298;2023-04-27T06:58:24;7.82;;;5.90;;
61702;SDS011;47622;47.726;3.298;2023-04-27T07:00:51;8.25;;;6.00;;
61702;SDS011;47622;47.726;3.298;2023-04-27T07:03:17;7.97;;;5.40;;
61702;SDS011;47622;47.726;3.298;2023-04-27T07:05:42;8.82;;;5.60;;
61702;SDS011;47622;47.726;3.298;2023-04-27T07:08:08;11.55;;;5.88;;
61702;SDS011;47622;47.726;3.298;2023-04-27T07:10:34;7.13;;;5.35;;
61702;SDS011;47622;47.726;3.298;2023-04-27T07:13:00;10.70;;;5.80;;
61702;SDS011;47622;47.726;3.298;2023-04-27T07:15:26;8.02;;;5.65;;
61702;SDS011;47622;47.726;3.298;2023-04-27T07:17:52;7.72;;;5.10;;
61702;SDS011;47622;47.726;3.298;2023-04-27T07:20:20;9.15;;;5.15;;
61702;SDS011;47622;47.726;3.298;2023-04-27T07:22:46;7.25;;;5.55;;
61702;SDS011;47622;47.726;3.298;2023-04-27T07:25:12;9.65;;;5.40;;
61702;SDS011;47622;47.726;3.298;2023-04-27T07:27:38;8.63;;;5.20;;
61702;SDS011;47622;47.726;3.298;2023-04-27T07:30:05;8.15;;;4.32;;
61702;SDS011;47622;47.726;3.298;2023-04-27T07:32:34;9.07;;;4.63;;
61702;SDS011;47622;47.726;3.298;2023-04-27T07:35:00;7.72;;;5.18;;
61702;SDS011;47622;47.726;3.298;2023-04-27T07:37:27;9.60;;;4.88;;
61702;SDS011;47622;47.726;3.298;2023-04-27T07:39:53;8.43;;;4.50;;
61702;SDS011;47622;47.726;3.298;2023-04-27T07:42:19;7.82;;;4.60;;
61702;SDS011;47622;47.726;3.298;2023-04-27T07:44:49;7.28;;;4.60;;
61702;SDS011;47622;47.726;3.298;2023-04-27T07:47:15;8.18;;;4.47;;
61702;SDS011;47622;47.726;3.298;2023-04-27T07:49:42;4.95;;;4.05;;
61702;SDS011;47622;47.726;3.298;2023-04-27T07:52:12;7.05;;;4.60;;
61702;SDS011;47622;47.726;3.298;2023-04-27T07:54:38;6.43;;;4.88;;
61702;SDS011;47622;47.726;3.298;2023-04-27T07:57:07;6.93;;;4.22;;
61702;SDS011;47622;47.726;3.298;2023-04-27T07:59:35;5.97;;;4.07;;
61702;SDS011;47622;47.726;3.298;2023-04-27T08:02:02;4.65;;;3.72;;
61702;SDS011;47622;47.726;3.298;2023-04-27T08:04:27;5.55;;;3.83;;
61702;SDS011;47622;47.726;3.298;2023-04-27T08:06:53;5.70;;;3.38;;
61702;SDS011;47622;47.726;3.298;2023-04-27T08:09:18;5.22;;;3.22;;
61702;SDS011;47622;47.726;3.298;2023-04-27T08:11:44;6.18;;;3.47;;
61702;SDS011;47622;47.726;3.298;2023-04-27T08:14:10;7.05;;;3.15;;
61702;SDS011;47622;47.726;3.298;2023-04-27T08:16:41;4.22;;;2.75;;
61702;SDS011;47622;47.726;3.298;2023-04-27T08:19:07;4.85;;;3.05;;
61702;SDS011;47622;47.726;3.298;2023-04-27T08:21:34;4.53;;;2.85;;
61702;SDS011;47622;47.726;3.298;2023-04-27T08:24:01;8.65;;;3.10;;
61702;SDS011;47622;47.726;3.298;2023-04-27T08:26:27;6.93;;;3.17;;
61702;SDS011;47622;47.726;3.298;2023-04-27T08:28:52;6.30;;;2.85;;
61702;SDS011;47622;47.726;3.298;2023-04-27T08:31:20;4.95;;;3.10;;
61702;SDS011;47622;47.726;3.298;2023-04-27T08:33:46;6.05;;;3.00;;
61702;SDS011;47622;47.726;3.298;2023-04-27T08:36:11;3.45;;;2.60;;
61702;SDS011;47622;47.726;3.298;2023-04-27T08:38:37;4.65;;;2.50;;
61702;SDS011;47622;47.726;3.298;2023-04-27T08:41:02;4.30;;;2.50;;
61702;SDS011;47622;47.726;3.298;2023-04-27T08:43:34;3.95;;;2.60;;
61702;SDS011;47622;47.726;3.298;2023-04-27T08:46:00;4.13;;;2.20;;
61702;SDS011;47622;47.726;3.298;2023-04-27T08:48:26;5.50;;;2.65;;
61702;SDS011;47622;47.726;3.298;2023-04-27T08:50:52;4.13;;;2.28;;
61702;SDS011;47622;47.726;3.298;2023-04-27T08:53:19;3.80;;;2.35;;
61702;SDS011;47622;47.726;3.298;2023-04-27T08:55:46;2.78;;;2.03;;
61702;SDS011;47622;47.726;3.298;2023-04-27T08:58:15;4.15;;;2.40;;
61702;SDS011;47622;47.726;3.298;2023-04-27T09:00:41;5.95;;;2.40;;
61702;SDS011;47622;47.726;3.298;2023-04-27T09:03:21;6.18;;;1.90;;
61702;SDS011;47622;47.726;3.298;2023-04-27T09:05:47;3.30;;;1.90;;
61702;SDS011;47622;47.726;3.298;2023-04-27T09:08:13;3.15;;;1.70;;
61702;SDS011;47622;47.726;3.298;2023-04-27T09:10:43;4.25;;;1.90;;
61702;SDS011;47622;47.726;3.298;2023-04-27T09:13:10;4.78;;;2.00;;
61702;SDS011;47622;47.726;3.298;2023-04-27T09:15:42;2.65;;;1.75;;
61702;SDS011;47622;47.726;3.298;2023-04-27T09:18:18;2.63;;;1.97;;
61702;SDS011;47622;47.726;3.298;2023-04-27T09:20:49;2.65;;;1.70;;
61702;SDS011;47622;47.726;3.298;2023-04-27T09:23:27;4.45;;;1.85;;
61702;SDS011;47622;47.726;3.298;2023-04-27T09:25:54;3.10;;;2.05;;
61702;SDS011;47622;47.726;3.298;2023-04-27T09:28:21;2.58;;;1.80;;
61702;SDS011;47622;47.726;3.298;2023-04-27T09:30:51;3.85;;;2.10;;
61702;SDS011;47622;47.726;3.298;2023-04-27T09:33:25;3.92;;;1.65;;
61702;SDS011;47622;47.726;3.298;2023-04-27T09:35:51;2.42;;;1.63;;
61702;SDS011;47622;47.726;3.298;2023-04-27T09:38:18;4.43;;;1.90;;
61702;SDS011;47622;47.726;3.298;2023-04-27T09:40:45;4.32;;;1.80;;
61702;SDS011;47622;47.726;3.298;2023-04-27T09:43:11;4.38;;;1.80;;
61702;SDS011;47622;47.726;3.298;2023-04-27T09:45:37;4.28;;;2.15;;
61702;SDS011;47622;47.726;3.298;2023-04-27T09:48:03;2.60;;;2.10;;
61702;SDS011;47622;47.726;3.298;2023-04-27T09:50:33;5.25;;;2.15;;
61702;SDS011;47622;47.726;3.298;2023-04-27T09:53:00;2.90;;;2.08;;
61702;SDS011;47622;47.726;3.298;2023-04-27T09:55:29;3.95;;;1.90;;
61702;SDS011;47622;47.726;3.298;2023-04-27T10:03:22;4.80;;;2.00;;
61702;SDS011;47622;47.726;3.298;2023-04-27T10:08:50;3.35;;;2.10;;
61702;SDS011;47622;47.726;3.298;2023-04-27T10:11:17;3.05;;;2.00;;
61702;SDS011;47622;47.726;3.298;2023-04-27T10:13:50;4.00;;;1.88;;
61702;SDS011;47622;47.726;3.298;2023-04-27T10:16:18;3.20;;;1.83;;
61702;SDS011;47622;47.726;3.298;2023-04-27T10:18:50;4.00;;;1.60;;
61702;SDS011;47622;47.726;3.298;2023-04-27T10:21:18;3.50;;;1.88;;
61702;SDS011;47622;47.726;3.298;2023-04-27T10:23:47;3.10;;;2.38;;
61702;SDS011;47622;47.726;3.298;2023-04-27T10:26:24;3.92;;;2.13;;
61702;SDS011;47622;47.726;3.298;2023-04-27T10:29:03;3.35;;;1.95;;
61702;SDS011;47622;47.726;3.298;2023-04-27T10:31:29;4.15;;;2.10;;
61702;SDS011;47622;47.726;3.298;2023-04-27T10:34:08;3.42;;;1.88;;
61702;SDS011;47622;47.726;3.298;2023-04-27T10:36:35;2.15;;;1.60;;
61702;SDS011;47622;47.726;3.298;2023-04-27T10:39:02;2.35;;;1.60;;
61702;SDS011;47622;47.726;3.298;2023-04-27T10:41:47;2.75;;;1.63;;
61702;SDS011;47622;47.726;3.298;2023-04-27T10:44:26;2.78;;;1.50;;
61702;SDS011;47622;47.726;3.298;2023-04-27T10:46:54;3.63;;;1.65;;
61702;SDS011;47622;47.726;3.298;2023-04-27T10:49:21;1.77;;;1.40;;
61702;SDS011;47622;47.726;3.298;2023-04-27T10:51:49;1.90;;;1.58;;
61702;SDS011;47622;47.726;3.298;2023-04-27T10:54:15;2.78;;;1.75;;
61702;SDS011;47622;47.726;3.298;2023-04-27T10:56:43;2.83;;;1.38;;
61702;SDS011;47622;47.726;3.298;2023-04-27T10:59:09;3.42;;;1.25;;
61702;SDS011;47622;47.726;3.298;2023-04-27T11:01:35;2.20;;;1.30;;
61702;SDS011;47622;47.726;3.298;2023-04-27T11:04:01;2.60;;;1.27;;
61702;SDS011;47622;47.726;3.298;2023-04-27T11:06:28;3.03;;;1.33;;
61702;SDS011;47622;47.726;3.298;2023-04-27T11:08:58;2.80;;;1.40;;
61702;SDS011;47622;47.726;3.298;2023-04-27T11:11:25;1.70;;;1.33;;
61702;SDS011;47622;47.726;3.298;2023-04-27T11:13:51;2.50;;;1.50;;
61702;SDS011;47622;47.726;3.298;2023-04-27T11:16:17;1.20;;;1.10;;
61702;SDS011;47622;47.726;3.298;2023-04-27T11:18:43;1.52;;;1.35;;
61702;SDS011;47622;47.726;3.298;2023-04-27T11:23:39;3.05;;;1.30;;
61702;SDS011;47622;47.726;3.298;2023-04-27T11:28:36;2.70;;;1.40;;
61702;SDS011;47622;47.726;3.298;2023-04-27T11:31:03;2.85;;;1.50;;
61702;SDS011;47622;47.726;3.298;2023-04-27T11:33:29;2.40;;;1.25;;
61702;SDS011;47622;47.726;3.298;2023-04-27T11:35:55;1.83;;;1.27;;
61702;SDS011;47622;47.726;3.298;2023-04-27T11:38:21;2.83;;;1.38;;
61702;SDS011;47622;47.726;3.298;2023-04-27T11:41:01;2.30;;;1.30;;
61702;SDS011;47622;47.726;3.298;2023-04-27T11:45:55;1.23;;;1.10;;
61702;SDS011;47622;47.726;3.298;2023-04-27T11:48:22;1.65;;;1.20;;
61702;SDS011;47622;47.726;3.298;2023-04-27T11:50:49;2.03;;;1.30;;
61702;SDS011;47622;47.726;3.298;2023-04-27T11:53:25;1.98;;;1.08;;
61702;SDS011;47622;47.726;3.298;2023-04-27T11:55:54;1.23;;;1.08;;
61702;SDS011;47622;47.726;3.298;2023-04-27T11:58:20;2.80;;;1.38;;
61702;SDS011;47622;47.726;3.298;2023-04-27T12:00:46;1.23;;;1.00;;
61702;SDS011;47622;47.726;3.298;2023-04-27T12:03:11;1.08;;;1.00;;
61702;SDS011;47622;47.726;3.298;2023-04-27T12:05:46;1.65;;;1.40;;
61702;SDS011;47622;47.726;3.298;2023-04-27T12:08:15;1.98;;;0.98;;
61702;SDS011;47622;47.726;3.298;2023-04-27T12:10:41;3.25;;;1.20;;
61702;SDS011;47622;47.726;3.298;2023-04-27T12:13:07;1.75;;;1.27;;
61702;SDS011;47622;47.726;3.298;2023-04-27T12:15:32;3.72;;;1.20;;
61702;SDS011;47622;47.726;3.298;2023-04-27T12:17:58;1.27;;;1.08;;
61702;SDS011;47622;47.726;3.298;2023-04-27T12:20:24;1.98;;;1.30;;
61702;SDS011;47622;47.726;3.298;2023-04-27T12:22:50;1.95;;;1.13;;
61702;SDS011;47622;47.726;3.298;2023-04-27T12:25:15;2.58;;;1.30;;
61702;SDS011;47622;47.726;3.298;2023-04-27T12:27:42;2.42;;;1.20;;
61702;SDS011;47622;47.726;3.298;2023-04-27T12:30:11;2.00;;;1.20;;
61702;SDS011;47622;47.726;3.298;2023-04-27T12:32:37;1.30;;;1.20;;
61702;SDS011;47622;47.726;3.298;2023-04-27T12:35:04;1.73;;;1.23;;
61702;SDS011;47622;47.726;3.298;2023-04-27T12:37:30;1.88;;;1.20;;
61702;SDS011;47622;47.726;3.298;2023-04-27T12:39:56;1.75;;;1.50;;
61702;SDS011;47622;47.726;3.298;2023-04-27T12:42:22;2.83;;;1.30;;
61702;SDS011;47622;47.726;3.298;2023-04-27T12:44:49;1.73;;;1.20;;
61702;SDS011;47622;47.726;3.298;2023-04-27T12:47:16;2.10;;;1.45;;
61702;SDS011;47622;47.726;3.298;2023-04-27T12:49:42;1.88;;;1.25;;
61702;SDS011;47622;47.726;3.298;2023-04-27T12:52:08;1.38;;;1.20;;
61702;SDS011;47622;47.726;3.298;2023-04-27T12:54:35;1.70;;;1.20;;
61702;SDS011;47622;47.726;3.298;2023-04-27T12:57:01;1.95;;;1.35;;
61702;SDS011;47622;47.726;3.298;2023-04-27T12:59:30;3.08;;;1.58;;
61702;SDS011;47622;47.726;3.298;2023-04-27T13:02:02;2.45;;;1.17;;
61702;SDS011;47622;47.726;3.298;2023-04-27T13:04:29;1.38;;;1.20;;
61702;SDS011;47622;47.726;3.298;2023-04-27T13:06:55;1.80;;;1.30;;
61702;SDS011;47622;47.726;3.298;2023-04-27T13:09:28;1.25;;;1.15;;
61702;SDS011;47622;47.726;3.298;2023-04-27T13:11:54;2.08;;;1.40;;
61702;SDS011;47622;47.726;3.298;2023-04-27T13:14:20;1.90;;;1.40;;
61702;SDS011;47622;47.726;3.298;2023-04-27T13:16:46;1.92;;;1.00;;
61702;SDS011;47622;47.726;3.298;2023-04-27T13:19:12;1.77;;;1.23;;
61702;SDS011;47622;47.726;3.298;2023-04-27T13:21:38;1.10;;;1.00;;
61702;SDS011;47622;47.726;3.298;2023-04-27T13:24:04;1.20;;;0.82;;
61702;SDS011;47622;47.726;3.298;2023-04-27T13:26:30;0.80;;;0.80;;
61702;SDS011;47622;47.726;3.298;2023-04-27T13:28:55;1.65;;;1.10;;
61702;SDS011;47622;47.726;3.298;2023-04-27T13:31:22;1.33;;;0.98;;
61702;SDS011;47622;47.726;3.298;2023-04-27T13:33:48;1.23;;;0.90;;
61702;SDS011;47622;47.726;3.298;2023-04-27T13:36:14;2.10;;;1.30;;
61702;SDS011;47622;47.726;3.298;2023-04-27T13:38:40;3.05;;;1.10;;
61702;SDS011;47622;47.726;3.298;2023-04-27T13:41:06;2.95;;;1.02;;
61702;SDS011;47622;47.726;3.298;2023-04-27T13:43:34;1.00;;;0.90;;
61702;SDS011;47622;47.726;3.298;2023-04-27T13:46:00;1.70;;;1.15;;
61702;SDS011;47622;47.726;3.298;2023-04-27T13:48:27;2.50;;;1.13;;
61702;SDS011;47622;47.726;3.298;2023-04-27T13:50:53;1.15;;;0.98;;
61702;SDS011;47622;47.726;3.298;2023-04-27T13:53:22;0.95;;;0.90;;
61702;SDS011;47622;47.726;3.298;2023-04-27T13:55:55;1.27;;;0.80;;
61702;SDS011;47622;47.726;3.298;2023-04-27T13:58:22;1.58;;;0.90;;
61702;SDS011;47622;47.726;3.298;2023-04-27T14:00:48;0.90;;;0.90;;
61702;SDS011;47622;47.726;3.298;2023-04-27T14:03:15;1.75;;;0.93;;
61702;SDS011;47622;47.726;3.298;2023-04-27T14:05:41;1.92;;;0.70;;
61702;SDS011;47622;47.726;3.298;2023-04-27T14:08:08;0.60;;;0.60;;
61702;SDS011;47622;47.726;3.298;2023-04-27T14:10:35;0.70;;;0.70;;
61702;SDS011;47622;47.726;3.298;2023-04-27T14:13:01;0.77;;;0.77;;
61702;SDS011;47622;47.726;3.298;2023-04-27T14:15:28;0.77;;;0.70;;
61702;SDS011;47622;47.726;3.298;2023-04-27T14:17:53;1.33;;;0.90;;
61702;SDS011;47622;47.726;3.298;2023-04-27T14:20:19;0.93;;;0.90;;
61702;SDS011;47622;47.726;3.298;2023-04-27T14:22:45;1.92;;;1.00;;
61702;SDS011;47622;47.726;3.298;2023-04-27T14:25:11;0.77;;;0.77;;
61702;SDS011;47622;47.726;3.298;2023-04-27T14:27:36;0.90;;;0.85;;
61702;SDS011;47622;47.726;3.298;2023-04-27T14:30:02;1.88;;;1.02;;
61702;SDS011;47622;47.726;3.298;2023-04-27T14:32:28;0.93;;;0.85;;
61702;SDS011;47622;47.726;3.298;2023-04-27T14:34:54;3.42;;;0.90;;
61702;SDS011;47622;47.726;3.298;2023-04-27T14:37:20;0.95;;;0.90;;
61702;SDS011;47622;47.726;3.298;2023-04-27T14:39:47;2.25;;;0.90;;
61702;SDS011;47622;47.726;3.298;2023-04-27T14:42:12;0.77;;;0.70;;
61702;SDS011;47622;47.726;3.298;2023-04-27T14:44:38;1.50;;;0.98;;
61702;SDS011;47622;47.726;3.298;2023-04-27T14:47:04;1.85;;;0.88;;
61702;SDS011;47622;47.726;3.298;2023-04-27T14:49:30;0.80;;;0.70;;
61702;SDS011;47622;47.726;3.298;2023-04-27T14:51:56;1.10;;;0.90;;
61702;SDS011;47622;47.726;3.298;2023-04-27T14:54:23;0.80;;;0.77;;
61702;SDS011;47622;47.726;3.298;2023-04-27T14:56:49;1.02;;;0.70;;